createdAt,value
2019-02-27T00:01:21.092Z,5.50
2019-02-27T00:03:51.061Z,5.40
2019-02-27T00:06:21.012Z,5.40
2019-02-27T00:08:50.750Z,5.40
2019-02-27T00:11:20.412Z,5.40
2019-02-27T00:13:50.207Z,5.40
2019-02-27T00:16:19.891Z,5.40
2019-02-27T00:18:49.599Z,5.30
2019-02-27T00:21:19.268Z,5.30
2019-02-27T00:23:48.920Z,5.30
2019-02-27T00:26:18.723Z,5.20
2019-02-27T00:28:48.628Z,5.20
2019-02-27T00:31:18.380Z,5.20
2019-02-27T00:33:48.164Z,5.20
2019-02-27T00:36:17.834Z,5.20
2019-02-27T00:38:47.538Z,5.20
2019-02-27T00:41:17.307Z,5.20
2019-02-27T00:43:47.005Z,5.10
2019-02-27T00:46:16.783Z,5.10
2019-02-27T00:48:46.616Z,5.10
2019-02-27T00:51:16.325Z,5.10
2019-02-27T00:53:46.227Z,5.00
2019-02-27T00:56:17.454Z,5.00
2019-02-27T00:58:47.145Z,5.00
2019-02-27T01:01:16.789Z,5.00
2019-02-27T01:03:46.641Z,5.00
2019-02-27T01:06:16.388Z,5.00
2019-02-27T01:08:46.110Z,4.90
2019-02-27T01:11:18.232Z,4.90
2019-02-27T01:13:47.198Z,4.90
2019-02-27T01:16:17.784Z,4.90
2019-02-27T01:18:47.528Z,4.90
2019-02-27T01:21:19.836Z,4.90
2019-02-27T01:23:48.700Z,4.80
2019-02-27T01:26:18.445Z,4.80
2019-02-27T01:28:48.120Z,4.80
2019-02-27T01:31:17.896Z,4.80
2019-02-27T01:33:47.708Z,4.70
2019-02-27T01:36:17.384Z,4.70
2019-02-27T01:38:47.124Z,4.70
2019-02-27T01:41:16.795Z,4.70
2019-02-27T01:43:46.570Z,4.70
2019-02-27T01:46:16.249Z,4.60
2019-02-27T01:48:45.894Z,4.60
2019-02-27T01:51:15.692Z,4.60
2019-02-27T01:53:45.376Z,4.60
2019-02-27T01:56:15.059Z,4.60
2019-02-27T01:58:44.981Z,4.60
2019-02-27T02:01:14.717Z,4.60
2019-02-27T02:03:47.250Z,4.50
2019-02-27T02:06:15.833Z,4.50
2019-02-27T02:08:48.004Z,4.50
2019-02-27T02:11:16.969Z,4.50
2019-02-27T02:13:58.457Z,4.50
2019-02-27T02:16:34.394Z,4.50
2019-02-27T02:19:39.271Z,4.40
2019-02-27T02:22:11.985Z,4.40
2019-02-27T02:25:03.118Z,4.40
2019-02-27T02:27:42.177Z,4.40
2019-02-27T02:30:35.891Z,4.40
2019-02-27T02:33:11.636Z,4.40
2019-02-27T02:35:51.102Z,4.30
2019-02-27T02:38:36.020Z,4.30
2019-02-27T02:41:20.270Z,4.30
2019-02-27T02:44:27.641Z,4.30
2019-02-27T02:47:22.233Z,4.20
2019-02-27T02:50:19.228Z,4.20
2019-02-27T02:53:04.218Z,4.20
2019-02-27T02:55:48.818Z,4.20
2019-02-27T02:58:32.132Z,4.20
2019-02-27T03:01:14.009Z,4.20
2019-02-27T03:03:48.278Z,4.10
2019-02-27T03:06:27.098Z,4.10
2019-02-27T03:09:14.627Z,4.10
2019-02-27T03:12:08.376Z,4.10
2019-02-27T03:14:52.918Z,4.10
2019-02-27T03:17:37.775Z,4.00
2019-02-27T03:20:22.336Z,4.10
2019-02-27T03:22:57.891Z,4.00
2019-02-27T03:25:50.951Z,4.00
2019-02-27T03:28:55.563Z,3.90
2019-02-27T03:31:57.599Z,3.90
2019-02-27T03:34:47.894Z,4.00
2019-02-27T03:37:18.800Z,3.90
2019-02-27T03:40:11.766Z,3.90
2019-02-27T03:43:10.459Z,3.90
2019-02-27T03:46:02.946Z,3.80
2019-02-27T03:48:51.453Z,3.80
2019-02-27T03:51:45.380Z,3.80
2019-02-27T03:54:57.068Z,3.90
2019-02-27T03:57:37.789Z,3.80
2019-02-27T04:00:22.574Z,3.80
2019-02-27T04:03:10.339Z,3.80
2019-02-27T04:06:05.897Z,3.80
2019-02-27T04:08:53.961Z,3.80
2019-02-27T04:11:23.776Z,3.70
2019-02-27T04:13:53.738Z,3.70
2019-02-27T04:16:28.821Z,3.70
2019-02-27T04:18:54.985Z,3.60
2019-02-27T04:21:26.002Z,3.60
2019-02-27T04:23:55.835Z,3.60
2019-02-27T04:26:25.580Z,3.60
2019-02-27T04:28:55.206Z,3.60
2019-02-27T04:31:29.600Z,3.60
2019-02-27T04:33:59.770Z,3.60
2019-02-27T04:36:30.467Z,3.60
2019-02-27T04:39:02.488Z,3.50
2019-02-27T04:41:31.653Z,3.50
2019-02-27T04:44:05.320Z,3.40
2019-02-27T04:46:32.664Z,3.40
2019-02-27T04:49:04.936Z,3.40
2019-02-27T04:51:33.788Z,3.40
2019-02-27T04:54:06.407Z,3.40
2019-02-27T04:56:34.903Z,3.40
2019-02-27T04:59:04.737Z,3.40
2019-02-27T05:01:36.628Z,3.40
2019-02-27T05:04:05.792Z,3.30
2019-02-27T05:06:35.534Z,3.30
2019-02-27T05:09:07.122Z,3.30
2019-02-27T05:11:37.104Z,3.30
2019-02-27T05:14:06.882Z,3.30
2019-02-27T05:16:36.544Z,3.30
2019-02-27T05:19:06.262Z,3.30
2019-02-27T05:21:36.016Z,3.20
2019-02-27T05:24:07.730Z,3.20
2019-02-27T05:26:37.163Z,3.20
2019-02-27T05:29:06.845Z,3.20
2019-02-27T05:31:36.546Z,3.20
2019-02-27T05:34:06.360Z,3.20
2019-02-27T05:36:36.100Z,3.20
2019-02-27T05:39:06.869Z,3.20
2019-02-27T05:41:36.565Z,3.10
2019-02-27T05:44:06.310Z,3.10
2019-02-27T05:46:38.466Z,3.10
2019-02-27T05:49:07.516Z,3.10
2019-02-27T05:51:37.230Z,3.10
2019-02-27T05:54:07.047Z,3.10
2019-02-27T05:56:36.689Z,3.10
2019-02-27T05:59:06.681Z,3.00
2019-02-27T06:01:38.277Z,3.00
2019-02-27T06:04:08.658Z,3.10
2019-02-27T06:06:38.296Z,3.10
2019-02-27T06:09:10.225Z,3.00
2019-02-27T06:11:39.301Z,3.00
2019-02-27T06:14:09.127Z,2.50
2019-02-27T06:16:40.738Z,2.40
2019-02-27T06:19:10.256Z,2.60
2019-02-27T06:21:40.000Z,2.80
2019-02-27T06:24:12.528Z,2.80
2019-02-27T06:26:41.019Z,2.80
2019-02-27T06:29:10.661Z,2.80
2019-02-27T06:31:40.453Z,2.80
2019-02-27T06:34:10.245Z,2.80
2019-02-27T06:36:42.798Z,2.80
2019-02-27T06:39:11.335Z,2.80
2019-02-27T06:41:41.088Z,2.80
2019-02-27T06:44:10.815Z,2.80
2019-02-27T06:46:40.496Z,2.80
2019-02-27T06:49:10.176Z,2.70
2019-02-27T06:51:39.964Z,2.70
2019-02-27T06:54:09.733Z,2.70
2019-02-27T06:56:39.423Z,2.70
2019-02-27T06:59:09.107Z,2.70
2019-02-27T07:01:38.777Z,2.70
2019-02-27T07:04:08.627Z,2.80
2019-02-27T07:06:38.453Z,2.70
2019-02-27T07:09:11.425Z,2.70
2019-02-27T07:11:39.813Z,2.70
2019-02-27T07:14:09.513Z,2.70
2019-02-27T07:16:39.327Z,2.70
2019-02-27T07:19:09.051Z,2.70
2019-02-27T07:21:38.701Z,2.70
2019-02-27T07:24:08.438Z,2.70
2019-02-27T07:26:43.476Z,2.70
2019-02-27T07:29:21.720Z,2.70
2019-02-27T07:31:52.188Z,2.70
2019-02-27T07:34:21.687Z,2.70
2019-02-27T07:36:51.491Z,2.70
2019-02-27T07:39:21.194Z,2.80
2019-02-27T07:41:50.947Z,2.80
2019-02-27T07:44:20.661Z,2.80
2019-02-27T07:46:50.354Z,2.80
2019-02-27T07:49:20.048Z,2.80
2019-02-27T07:51:49.858Z,2.80
2019-02-27T07:54:19.739Z,2.80
2019-02-27T07:56:49.495Z,2.80
2019-02-27T07:59:19.124Z,2.80
2019-02-27T08:01:48.987Z,2.80
2019-02-27T08:04:19.235Z,2.80
2019-02-27T08:06:50.118Z,2.80
2019-02-27T08:09:19.936Z,2.90
2019-02-27T08:11:49.672Z,3.00
2019-02-27T08:14:19.394Z,3.10
2019-02-27T08:16:50.873Z,3.20
2019-02-27T08:19:20.634Z,3.20
2019-02-27T08:21:50.474Z,3.30
2019-02-27T08:24:20.246Z,3.40
2019-02-27T08:26:50.121Z,3.50
2019-02-27T08:29:19.863Z,3.50
2019-02-27T08:31:49.696Z,3.60
2019-02-27T08:34:19.387Z,3.70
2019-02-27T08:36:49.101Z,3.80
2019-02-27T08:39:18.857Z,3.90
2019-02-27T08:41:48.599Z,4.00
2019-02-27T08:44:18.242Z,4.00
2019-02-27T08:46:48.063Z,4.10
2019-02-27T08:49:17.837Z,4.20
2019-02-27T08:51:47.585Z,4.20
2019-02-27T08:54:17.421Z,4.30
2019-02-27T08:56:47.872Z,4.40
2019-02-27T08:59:18.002Z,4.40
2019-02-27T09:01:47.757Z,4.50
2019-02-27T09:04:17.475Z,4.50
2019-02-27T09:06:47.260Z,4.60
2019-02-27T09:09:17.909Z,4.60
2019-02-27T09:11:48.383Z,4.70
2019-02-27T09:14:18.086Z,4.70
2019-02-27T09:16:47.843Z,4.80
2019-02-27T09:19:17.646Z,4.90
2019-02-27T09:21:50.068Z,4.90
2019-02-27T09:24:19.836Z,5.00
2019-02-27T09:26:49.580Z,5.00
2019-02-27T09:29:19.335Z,5.10
2019-02-27T09:31:50.988Z,5.10
2019-02-27T09:34:20.833Z,5.20
2019-02-27T09:36:50.678Z,5.30
2019-02-27T09:39:22.086Z,5.30
2019-02-27T09:41:54.468Z,5.40
2019-02-27T09:44:23.356Z,5.40
2019-02-27T09:46:53.179Z,5.50
2019-02-27T09:49:23.120Z,5.50
2019-02-27T09:51:56.049Z,5.60
2019-02-27T09:54:24.305Z,6.80
2019-02-27T09:56:54.084Z,7.60
2019-02-27T09:59:24.002Z,8.10
2019-02-27T10:01:53.771Z,8.30
2019-02-27T10:04:25.947Z,8.50
2019-02-27T10:06:55.008Z,8.70
2019-02-27T10:09:24.842Z,8.90
2019-02-27T10:11:55.042Z,9.00
2019-02-27T10:14:25.282Z,9.10
2019-02-27T10:16:55.586Z,9.10
2019-02-27T10:19:26.871Z,9.30
2019-02-27T10:21:57.572Z,9.30
2019-02-27T10:24:27.703Z,9.50
2019-02-27T10:26:57.928Z,9.50
2019-02-27T10:29:28.228Z,9.70
2019-02-27T10:32:00.533Z,9.80
2019-02-27T10:34:30.213Z,9.80
2019-02-27T10:37:00.497Z,10.00
2019-02-27T10:39:30.909Z,10.10
2019-02-27T10:42:01.282Z,10.40
2019-02-27T10:44:33.802Z,10.50
2019-02-27T10:47:03.262Z,10.50
2019-02-27T10:49:33.390Z,10.50
2019-02-27T10:52:03.733Z,10.50
2019-02-27T10:54:34.138Z,10.60
2019-02-27T10:57:05.926Z,10.70
2019-02-27T10:59:36.021Z,10.90
2019-02-27T11:02:06.115Z,11.00
2019-02-27T11:04:38.932Z,11.10
2019-02-27T11:07:08.004Z,11.20
2019-02-27T11:09:41.005Z,11.20
2019-02-27T11:12:09.989Z,11.30
2019-02-27T11:14:40.203Z,11.40
2019-02-27T11:17:10.327Z,11.30
2019-02-27T11:19:40.699Z,10.70
2019-02-27T11:22:10.973Z,10.30
2019-02-27T11:24:41.400Z,10.10
2019-02-27T11:27:11.622Z,9.90
2019-02-27T11:29:41.947Z,9.80
2019-02-27T11:32:12.064Z,9.80
2019-02-27T11:34:42.387Z,9.70
2019-02-27T11:37:13.776Z,9.70
2019-02-27T11:39:44.202Z,9.70
2019-02-27T11:42:14.350Z,9.70
2019-02-27T11:44:49.271Z,9.70
2019-02-27T11:47:16.367Z,9.70
2019-02-27T11:49:47.103Z,9.70
2019-02-27T11:52:17.426Z,9.80
2019-02-27T11:54:47.849Z,9.80
2019-02-27T11:57:18.383Z,9.80
2019-02-27T11:59:48.602Z,9.80
2019-02-27T12:02:19.027Z,9.80
2019-02-27T12:04:53.724Z,9.80
2019-02-27T12:07:21.011Z,9.80
2019-02-27T12:09:51.431Z,9.80
2019-02-27T12:12:23.405Z,9.80
2019-02-27T12:14:53.310Z,9.80
2019-02-27T12:17:25.679Z,9.90
2019-02-27T12:19:55.388Z,9.90
2019-02-27T12:22:25.717Z,9.90
2019-02-27T12:24:55.937Z,9.90
2019-02-27T12:27:47.989Z,9.90
2019-02-27T12:30:00.101Z,11.10
2019-02-27T12:32:29.567Z,11.70
2019-02-27T12:34:59.689Z,11.90
2019-02-27T12:37:34.025Z,12.10
2019-02-27T12:40:01.548Z,12.40
2019-02-27T12:42:37.131Z,12.30
2019-02-27T12:45:03.648Z,12.40
2019-02-27T12:47:33.970Z,12.50
2019-02-27T12:50:05.420Z,12.50
2019-02-27T12:52:35.744Z,12.50
2019-02-27T12:55:07.913Z,12.50
2019-02-27T12:57:38.192Z,12.60
2019-02-27T13:00:26.482Z,12.60
2019-02-27T13:02:58.841Z,12.50
2019-02-27T13:05:29.794Z,12.50
2019-02-27T13:07:59.936Z,12.50
2019-02-27T13:10:34.052Z,12.40
2019-02-27T13:13:02.111Z,12.40
2019-02-27T13:15:32.420Z,12.40
2019-02-27T13:18:02.522Z,12.50
2019-02-27T13:20:36.452Z,12.50
2019-02-27T13:23:06.729Z,12.40
2019-02-27T13:25:36.894Z,12.40
2019-02-27T13:28:07.037Z,12.40
2019-02-27T13:30:41.337Z,12.40
2019-02-27T13:33:09.294Z,12.40
2019-02-27T13:35:39.825Z,12.40
2019-02-27T13:38:10.147Z,12.40
2019-02-27T13:40:40.470Z,12.40
2019-02-27T13:43:10.661Z,12.50
2019-02-27T13:45:41.241Z,12.50
2019-02-27T13:48:11.586Z,12.50
2019-02-27T13:50:43.205Z,12.50
2019-02-27T13:53:13.621Z,12.50
2019-02-27T13:55:45.379Z,12.50
2019-02-27T13:58:17.266Z,12.50
2019-02-27T14:00:47.468Z,12.40
2019-02-27T14:03:17.646Z,12.40
2019-02-27T14:05:48.282Z,12.40
2019-02-27T14:08:18.844Z,12.30
2019-02-27T14:10:50.475Z,12.30
2019-02-27T14:13:21.011Z,12.20
2019-02-27T14:15:51.982Z,12.20
2019-02-27T14:18:22.700Z,12.20
2019-02-27T14:20:52.734Z,12.20
2019-02-27T14:23:22.827Z,12.10
2019-02-27T14:25:53.679Z,12.10
2019-02-27T14:28:24.544Z,12.10
2019-02-27T14:30:55.390Z,12.10
2019-02-27T14:33:26.716Z,12.00
2019-02-27T14:35:57.643Z,12.00
2019-02-27T14:38:28.133Z,12.00
2019-02-27T14:40:58.611Z,11.90
2019-02-27T14:43:29.263Z,11.90
2019-02-27T14:45:59.886Z,11.90
2019-02-27T14:48:30.516Z,11.90
2019-02-27T14:51:01.850Z,11.90
2019-02-27T14:53:32.159Z,11.80
2019-02-27T14:56:02.995Z,11.80
2019-02-27T14:58:33.038Z,11.80
2019-02-27T15:01:03.199Z,11.90
2019-02-27T15:03:33.524Z,12.30
2019-02-27T15:06:03.592Z,12.20
2019-02-27T15:08:33.899Z,12.00
2019-02-27T15:11:04.227Z,11.90
2019-02-27T15:13:34.447Z,11.90
2019-02-27T15:16:04.683Z,11.90
2019-02-27T15:18:34.888Z,11.80
2019-02-27T15:21:05.318Z,11.80
2019-02-27T15:23:35.638Z,11.80
2019-02-27T15:26:06.069Z,11.70
2019-02-27T15:28:36.393Z,11.70
2019-02-27T15:31:06.527Z,11.60
2019-02-27T15:33:39.048Z,11.60
2019-02-27T15:36:08.798Z,11.60
2019-02-27T15:38:38.845Z,11.60
2019-02-27T15:41:08.951Z,11.60
2019-02-27T15:43:39.256Z,11.50
2019-02-27T15:46:09.683Z,11.50
2019-02-27T15:48:40.930Z,11.50
2019-02-27T15:51:11.709Z,11.40
2019-02-27T15:53:41.910Z,11.40
2019-02-27T15:56:12.039Z,11.40
2019-02-27T15:58:42.255Z,11.40
2019-02-27T16:01:12.455Z,11.40
2019-02-27T16:03:45.444Z,11.30
2019-02-27T16:06:14.543Z,11.30
2019-02-27T16:08:44.854Z,11.30
2019-02-27T16:11:16.556Z,11.20
2019-02-27T16:13:46.936Z,11.20
2019-02-27T16:16:22.276Z,11.20
2019-02-27T16:18:49.463Z,11.10
2019-02-27T16:21:20.928Z,11.10
2019-02-27T16:23:51.920Z,11.10
2019-02-27T16:26:22.240Z,11.00
2019-02-27T16:28:52.566Z,11.00
2019-02-27T16:31:22.788Z,11.00
2019-02-27T16:33:55.566Z,11.00
2019-02-27T16:36:25.085Z,10.90
2019-02-27T16:38:55.819Z,10.90
2019-02-27T16:41:29.043Z,10.90
2019-02-27T16:43:57.647Z,10.80
2019-02-27T16:46:27.683Z,10.80
2019-02-27T16:48:58.133Z,10.80
2019-02-27T16:51:31.138Z,10.70
2019-02-27T16:54:00.618Z,10.70
2019-02-27T16:56:32.178Z,10.70
2019-02-27T16:59:07.476Z,10.60
2019-02-27T17:01:34.148Z,10.60
2019-02-27T17:04:04.477Z,10.60
2019-02-27T17:06:34.802Z,10.50
2019-02-27T17:09:07.224Z,10.50
2019-02-27T17:11:38.119Z,10.50
2019-02-27T17:14:08.435Z,10.40
2019-02-27T17:16:44.302Z,10.40
2019-02-27T17:19:12.051Z,10.40
2019-02-27T17:21:42.374Z,10.30
2019-02-27T17:24:12.703Z,10.30
2019-02-27T17:26:42.920Z,10.30
2019-02-27T17:29:13.866Z,10.20
2019-02-27T17:31:49.319Z,10.30
2019-02-27T17:34:16.253Z,10.20
2019-02-27T17:36:46.358Z,10.20
2019-02-27T17:39:16.558Z,10.10
2019-02-27T17:41:46.820Z,10.10
2019-02-27T17:44:17.135Z,10.10
2019-02-27T17:46:47.357Z,10.00
2019-02-27T17:49:17.686Z,10.00
2019-02-27T17:51:49.502Z,10.00
2019-02-27T17:54:19.474Z,10.00
2019-02-27T17:56:50.050Z,9.90
2019-02-27T17:59:21.130Z,9.90
2019-02-27T18:01:51.552Z,9.90
2019-02-27T18:04:22.084Z,9.90
2019-02-27T18:06:52.114Z,9.80
2019-02-27T18:09:23.531Z,9.80
2019-02-27T18:11:54.181Z,9.80
2019-02-27T18:14:25.034Z,9.80
2019-02-27T18:16:59.202Z,9.70
2019-02-27T18:19:27.712Z,9.70
2019-02-27T18:21:58.036Z,9.70
2019-02-27T18:24:33.162Z,9.70
2019-02-27T18:27:00.022Z,9.70
2019-02-27T18:29:30.236Z,9.60
2019-02-27T18:32:06.165Z,9.60
2019-02-27T18:34:32.425Z,9.60
2019-02-27T18:37:02.864Z,9.50
2019-02-27T18:39:36.280Z,9.50
2019-02-27T18:42:04.826Z,9.50
2019-02-27T18:44:35.151Z,9.40
2019-02-27T18:47:05.300Z,9.40
2019-02-27T18:49:35.698Z,9.40
2019-02-27T18:52:06.700Z,9.40
2019-02-27T18:54:37.882Z,9.40
2019-02-27T18:57:08.205Z,9.30
2019-02-27T18:59:38.531Z,9.30
2019-02-27T19:02:08.852Z,9.30
2019-02-27T19:04:38.987Z,9.30
2019-02-27T19:07:09.503Z,9.20
2019-02-27T19:09:39.730Z,9.20
2019-02-27T19:12:10.051Z,9.20
2019-02-27T19:14:40.276Z,9.10
2019-02-27T19:17:10.494Z,9.10
2019-02-27T19:19:40.925Z,9.10
2019-02-27T19:22:11.334Z,9.10
2019-02-27T19:24:41.772Z,9.00
2019-02-27T19:27:12.097Z,9.00
2019-02-27T19:29:42.326Z,8.90
2019-02-27T19:32:12.527Z,8.90
2019-02-27T19:34:44.754Z,8.90
2019-02-27T19:37:14.414Z,8.90
2019-02-27T19:39:44.942Z,8.90
2019-02-27T19:42:16.235Z,8.80
2019-02-27T19:44:46.725Z,8.80
2019-02-27T19:47:18.445Z,8.80
2019-02-27T19:49:48.909Z,8.80
2019-02-27T19:52:19.237Z,8.80
2019-02-27T19:54:52.615Z,8.70
2019-02-27T19:57:21.516Z,8.60
2019-02-27T19:59:51.732Z,8.70
2019-02-27T20:02:22.262Z,8.60
2019-02-27T20:04:52.586Z,8.60
2019-02-27T20:07:22.765Z,8.60
2019-02-27T20:09:55.427Z,8.60
2019-02-27T20:12:25.811Z,8.50
2019-02-27T20:14:56.135Z,8.50
2019-02-27T20:17:32.811Z,8.50
2019-02-27T20:20:00.615Z,8.40
2019-02-27T20:22:30.975Z,8.40
2019-02-27T20:25:01.117Z,8.40
2019-02-27T20:27:31.722Z,8.40
2019-02-27T20:30:02.281Z,8.30
2019-02-27T20:32:32.702Z,8.30
2019-02-27T20:35:02.928Z,8.30
2019-02-27T20:37:33.458Z,8.30
2019-02-27T20:40:03.677Z,8.20
2019-02-27T20:42:33.998Z,8.20
2019-02-27T20:45:05.245Z,8.10
2019-02-27T20:47:35.568Z,8.10
2019-02-27T20:50:08.958Z,8.10
2019-02-27T20:52:39.395Z,8.10
2019-02-27T20:55:09.716Z,8.00
2019-02-27T20:57:42.250Z,8.00
2019-02-27T21:00:14.767Z,8.00
2019-02-27T21:02:44.995Z,7.90
2019-02-27T21:05:15.320Z,7.90
2019-02-27T21:07:45.642Z,7.90
2019-02-27T21:10:21.490Z,7.90
2019-02-27T21:12:54.295Z,7.80
2019-02-27T21:15:24.895Z,7.80
2019-02-27T21:17:58.523Z,7.80
2019-02-27T21:20:27.399Z,7.80
2019-02-27T21:22:59.873Z,7.80
2019-02-27T21:25:29.278Z,7.70
2019-02-27T21:27:59.494Z,7.80
2019-02-27T21:30:29.919Z,7.70
2019-02-27T21:33:00.038Z,7.70
2019-02-27T21:35:30.364Z,7.70
2019-02-27T21:38:00.694Z,7.70
2019-02-27T21:40:33.412Z,7.60
2019-02-27T21:43:02.769Z,7.60
2019-02-27T21:45:37.109Z,7.60
2019-02-27T21:48:04.849Z,7.60
2019-02-27T21:50:39.547Z,7.50
2019-02-27T21:53:06.725Z,7.50
2019-02-27T21:55:36.948Z,7.50
2019-02-27T21:58:07.580Z,7.50
2019-02-27T22:00:37.764Z,7.50
2019-02-27T22:03:07.898Z,7.50
2019-02-27T22:05:42.725Z,7.50
2019-02-27T22:08:10.006Z,7.50
2019-02-27T22:10:40.326Z,7.50
2019-02-27T22:13:10.904Z,7.40
2019-02-27T22:15:41.486Z,7.50
2019-02-27T22:18:12.109Z,7.50
2019-02-27T22:20:42.646Z,7.40
2019-02-27T22:23:13.507Z,7.40
2019-02-27T22:25:43.909Z,7.40
2019-02-27T22:28:13.972Z,7.30
2019-02-27T22:30:44.075Z,7.30
2019-02-27T22:33:14.272Z,7.30
2019-02-27T22:35:44.595Z,7.30
2019-02-27T22:38:14.604Z,7.30
2019-02-27T22:40:45.033Z,7.20
2019-02-27T22:43:15.254Z,7.20
2019-02-27T22:45:45.283Z,7.20
2019-02-27T22:48:15.398Z,7.20
2019-02-27T22:50:45.467Z,7.10
2019-02-27T22:53:15.503Z,7.10
2019-02-27T22:55:45.857Z,7.10
2019-02-27T22:58:15.935Z,7.10
2019-02-27T23:01:02.473Z,7.10
2019-02-27T23:03:38.818Z,7.10
2019-02-27T23:06:12.121Z,7.10
2019-02-27T23:08:41.936Z,7.10
2019-02-27T23:11:12.550Z,7.00
2019-02-27T23:13:48.388Z,7.00
2019-02-27T23:16:20.390Z,7.00
2019-02-27T23:18:50.729Z,7.00
2019-02-27T23:21:21.040Z,7.00
2019-02-27T23:23:51.239Z,6.90
2019-02-27T23:26:21.483Z,6.90
2019-02-27T23:28:51.813Z,6.90
2019-02-27T23:31:23.374Z,6.90
2019-02-27T23:33:53.910Z,6.80
2019-02-27T23:36:24.178Z,6.80
2019-02-27T23:38:54.231Z,6.80
2019-02-27T23:41:24.656Z,6.80
2019-02-27T23:43:54.883Z,6.80
2019-02-27T23:46:25.101Z,6.80
2019-02-27T23:48:55.425Z,6.70
2019-02-27T23:51:26.361Z,6.70
2019-02-27T23:53:58.557Z,6.70
2019-02-27T23:56:28.445Z,6.70
2019-02-27T23:59:02.047Z,6.70
